createdAt,value
2023-01-07T00:01:12.490Z,101866.09
2023-01-07T00:03:40.190Z,101862.81
2023-01-07T00:06:12.343Z,101861.84
2023-01-07T00:08:41.257Z,101863.34
2023-01-07T00:11:10.068Z,101861.16
2023-01-07T00:13:37.061Z,101852.34
2023-01-07T00:16:09.712Z,101859.50
2023-01-07T00:18:36.767Z,101858.22
2023-01-07T00:21:07.103Z,101861.31
2023-01-07T00:23:35.343Z,101851.06
2023-01-07T00:26:04.786Z,101849.44
2023-01-07T00:28:33.786Z,101857.66
2023-01-07T00:31:06.477Z,101844.09
2023-01-07T00:33:35.417Z,101845.00
2023-01-07T00:36:03.943Z,101845.56
2023-01-07T00:38:30.554Z,101841.53
2023-01-07T00:40:57.205Z,101841.53
2023-01-07T00:43:23.638Z,101845.94
2023-01-07T00:45:50.094Z,101837.84
2023-01-07T00:48:18.611Z,101844.84
2023-01-07T00:50:48.180Z,101846.88
2023-01-07T00:53:14.607Z,101840.63
2023-01-07T00:55:41.341Z,101833.66
2023-01-07T00:58:07.898Z,101832.00
2023-01-07T01:00:34.444Z,101840.63
2023-01-07T01:03:00.841Z,101838.25
2023-01-07T01:05:27.269Z,101834.16
2023-01-07T01:07:53.710Z,101832.34
2023-01-07T01:10:20.613Z,101840.81
2023-01-07T01:12:49.316Z,101835.47
2023-01-07T01:15:17.111Z,101841.88
2023-01-07T01:17:43.910Z,101832.34
2023-01-07T01:20:15.265Z,101836.75
2023-01-07T01:22:42.484Z,101835.09
2023-01-07T01:25:09.867Z,101824.63
2023-01-07T01:27:36.598Z,101836.38
2023-01-07T01:30:03.666Z,101836.38
2023-01-07T01:32:30.165Z,101837.69
2023-01-07T01:34:56.717Z,101830.34
2023-01-07T01:37:23.453Z,101825.75
2023-01-07T01:39:49.837Z,101826.66
2023-01-07T01:42:19.533Z,101827.75
2023-01-07T01:44:50.650Z,101831.09
2023-01-07T01:47:23.174Z,101830.16
2023-01-07T01:50:18.899Z,101833.13
2023-01-07T01:52:55.111Z,101837.84
2023-01-07T01:55:26.043Z,101832.72
2023-01-07T01:57:56.500Z,101831.06
2023-01-07T02:00:22.920Z,101819.53
2023-01-07T02:02:54.500Z,101819.50
2023-01-07T02:05:21.435Z,101820.97
2023-01-07T02:07:47.828Z,101814.38
2023-01-07T02:10:16.941Z,101814.38
2023-01-07T02:13:01.795Z,101824.81
2023-01-07T02:15:54.640Z,101812.56
2023-01-07T02:18:24.029Z,101812.56
2023-01-07T02:20:56.387Z,101806.69
2023-01-07T02:23:41.224Z,101810.38
2023-01-07T02:26:43.945Z,101804.69
2023-01-07T02:29:28.034Z,101807.47
2023-01-07T02:32:14.627Z,101803.81
2023-01-07T02:35:03.101Z,101799.41
2023-01-07T02:37:54.156Z,101801.63
2023-01-07T02:40:36.998Z,101798.13
2023-01-07T02:43:41.308Z,101796.66
2023-01-07T02:46:30.582Z,101796.81
2023-01-07T02:49:01.138Z,101792.44
2023-01-07T02:51:39.522Z,101799.06
2023-01-07T02:54:12.521Z,101790.63
2023-01-07T02:56:47.797Z,101792.09
2023-01-07T02:59:23.066Z,101791.56
2023-01-07T03:02:26.300Z,101788.09
2023-01-07T03:05:09.589Z,101788.84
2023-01-07T03:07:53.823Z,101788.84
2023-01-07T03:10:29.158Z,101787.34
2023-01-07T03:13:04.278Z,101788.03
2023-01-07T03:15:40.051Z,101784.75
2023-01-07T03:18:13.587Z,101786.56
2023-01-07T03:20:43.082Z,101783.66
2023-01-07T03:23:13.261Z,101780.38
2023-01-07T03:25:43.855Z,101777.09
2023-01-07T03:28:14.017Z,101787.13
2023-01-07T03:30:40.513Z,101782.75
2023-01-07T03:33:17.617Z,101778.34
2023-01-07T03:35:49.010Z,101780.91
2023-01-07T03:38:17.516Z,101782.19
2023-01-07T03:40:44.221Z,101781.44
2023-01-07T03:43:15.326Z,101779.97
2023-01-07T03:45:42.548Z,101780.34
2023-01-07T03:48:09.122Z,101778.16
2023-01-07T03:50:35.663Z,101775.59
2023-01-07T03:53:02.168Z,101771.38
2023-01-07T03:55:28.594Z,101773.94
2023-01-07T03:57:55.926Z,101767.50
2023-01-07T04:00:22.380Z,101766.47
2023-01-07T04:02:48.971Z,101771.22
2023-01-07T04:05:15.621Z,101770.88
2023-01-07T04:07:42.104Z,101773.63
2023-01-07T04:10:09.152Z,101767.59
2023-01-07T04:12:36.031Z,101764.31
2023-01-07T04:15:03.111Z,101762.28
2023-01-07T04:17:29.497Z,101766.28
2023-01-07T04:19:55.884Z,101766.47
2023-01-07T04:22:22.325Z,101764.66
2023-01-07T04:24:48.759Z,101763.56
2023-01-07T04:27:15.521Z,101764.88
2023-01-07T04:29:42.079Z,101768.88
2023-01-07T04:32:08.451Z,101766.84
2023-01-07T04:34:34.903Z,101763.13
2023-01-07T04:37:01.322Z,101771.59
2023-01-07T04:39:27.715Z,101764.84
2023-01-07T04:41:54.096Z,101766.13
2023-01-07T04:44:20.538Z,101769.44
2023-01-07T04:46:46.965Z,101767.22
2023-01-07T04:49:13.551Z,101770.88
2023-01-07T04:51:40.023Z,101768.66
2023-01-07T04:54:06.434Z,101768.13
2023-01-07T04:56:32.860Z,101766.47
2023-01-07T04:58:59.297Z,101775.78
2023-01-07T05:01:25.943Z,101765.72
2023-01-07T05:03:52.475Z,101766.81
2023-01-07T05:06:18.998Z,101762.94
2023-01-07T05:08:45.414Z,101763.47
2023-01-07T05:11:11.915Z,101758.34
2023-01-07T05:13:38.339Z,101755.78
2023-01-07T05:16:05.058Z,101757.25
2023-01-07T05:18:31.518Z,101761.47
2023-01-07T05:20:58.063Z,101757.25
2023-01-07T05:23:24.473Z,101756.72
2023-01-07T05:25:50.864Z,101757.06
2023-01-07T05:28:17.307Z,101759.63
2023-01-07T05:30:43.784Z,101753.94
2023-01-07T05:33:10.193Z,101759.41
2023-01-07T05:35:36.666Z,101755.03
2023-01-07T05:38:03.223Z,101750.66
2023-01-07T05:40:29.980Z,101753.94
2023-01-07T05:42:56.502Z,101759.25
2023-01-07T05:45:22.951Z,101752.47
2023-01-07T05:47:49.438Z,101756.50
2023-01-07T05:50:16.020Z,101750.47
2023-01-07T05:52:42.431Z,101757.97
2023-01-07T05:55:09.102Z,101761.44
2023-01-07T05:57:35.524Z,101755.41
2023-01-07T06:00:01.928Z,101763.09
2023-01-07T06:02:28.329Z,101765.84
2023-01-07T06:04:54.904Z,101762.19
2023-01-07T06:07:21.341Z,101760.91
2023-01-07T06:09:47.732Z,101765.72
2023-01-07T06:12:14.145Z,101765.19
2023-01-07T06:14:40.562Z,101764.28
2023-01-07T06:17:07.109Z,101767.56
2023-01-07T06:19:33.531Z,101768.13
2023-01-07T06:22:00.009Z,101763.50
2023-01-07T06:24:26.697Z,101764.44
2023-01-07T06:26:53.181Z,101758.06
2023-01-07T06:29:19.648Z,101756.19
2023-01-07T06:31:46.078Z,101762.84
2023-01-07T06:34:12.457Z,101761.53
2023-01-07T06:36:39.102Z,101749.97
2023-01-07T06:39:05.614Z,101755.16
2023-01-07T06:41:32.099Z,101752.03
2023-01-07T06:43:58.555Z,101761.72
2023-01-07T06:46:25.277Z,101760.63
2023-01-07T06:48:51.774Z,101765.41
2023-01-07T06:51:18.272Z,101761.19
2023-01-07T06:53:44.751Z,101766.84
2023-01-07T06:56:11.192Z,101760.81
2023-01-07T06:58:37.657Z,101763.38
2023-01-07T07:01:08.520Z,101760.06
2023-01-07T07:03:35.061Z,101753.97
2023-01-07T07:06:01.672Z,101763.09
2023-01-07T07:08:29.238Z,101759.63
2023-01-07T07:10:55.800Z,101756.16
2023-01-07T07:13:22.242Z,101759.06
2023-01-07T07:15:49.754Z,101758.34
2023-01-07T07:18:17.876Z,101756.88
2023-01-07T07:20:46.781Z,101751.38
2023-01-07T07:23:13.352Z,101761.97
2023-01-07T07:25:39.945Z,101761.44
2023-01-07T07:28:06.433Z,101763.25
2023-01-07T07:30:45.941Z,101770.75
2023-01-07T07:33:15.160Z,101761.63
2023-01-07T07:35:41.719Z,101765.72
2023-01-07T07:38:08.172Z,101774.50
2023-01-07T07:40:34.577Z,101770.78
2023-01-07T07:43:10.462Z,101776.31
2023-01-07T07:45:39.731Z,101777.25
2023-01-07T07:48:07.679Z,101776.72
2023-01-07T07:50:35.074Z,101773.97
2023-01-07T07:53:01.801Z,101778.34
2023-01-07T07:55:28.274Z,101779.97
2023-01-07T07:57:56.296Z,101778.53
2023-01-07T08:00:23.247Z,101783.47
2023-01-07T08:02:50.208Z,101778.91
2023-01-07T08:05:16.848Z,101779.44
2023-01-07T08:07:43.243Z,101778.16
2023-01-07T08:10:09.855Z,101770.78
2023-01-07T08:12:38.252Z,101780.34
2023-01-07T08:15:06.901Z,101781.06
2023-01-07T08:17:33.562Z,101778.28
2023-01-07T08:20:00.196Z,101784.72
2023-01-07T08:22:26.927Z,101791.50
2023-01-07T08:24:53.463Z,101789.13
2023-01-07T08:27:20.090Z,101792.97
2023-01-07T08:29:47.003Z,101790.59
2023-01-07T08:32:13.802Z,101789.50
2023-01-07T08:34:40.399Z,101800.47
2023-01-07T08:37:06.949Z,101791.53
2023-01-07T08:39:33.497Z,101792.63
2023-01-07T08:41:59.979Z,101792.63
2023-01-07T08:44:26.399Z,101784.38
2023-01-07T08:46:54.100Z,101790.22
2023-01-07T08:49:20.614Z,101789.88
2023-01-07T08:51:47.074Z,101786.97
2023-01-07T08:54:13.611Z,101790.25
2023-01-07T08:56:40.057Z,101794.44
2023-01-07T08:59:06.627Z,101788.75
2023-01-07T09:01:33.351Z,101790.22
2023-01-07T09:04:00.259Z,101785.47
2023-01-07T09:06:26.736Z,101788.72
2023-01-07T09:08:53.164Z,101788.56
2023-01-07T09:11:19.654Z,101798.97
2023-01-07T09:13:46.098Z,101799.34
2023-01-07T09:16:12.579Z,101795.06
2023-01-07T09:18:38.998Z,101801.09
2023-01-07T09:21:05.627Z,101806.81
2023-01-07T09:23:32.102Z,101807.03
2023-01-07T09:25:58.542Z,101805.94
2023-01-07T09:28:25.039Z,101810.69
2023-01-07T09:30:51.531Z,101804.09
2023-01-07T09:33:17.981Z,101804.28
2023-01-07T09:35:44.469Z,101805.19
2023-01-07T09:38:11.106Z,101803.91
2023-01-07T09:40:40.386Z,101797.31
2023-01-07T09:43:59.692Z,101790.16
2023-01-07T09:46:20.583Z,101796.78
2023-01-07T09:48:51.389Z,101794.56
2023-01-07T09:51:23.428Z,101785.34
2023-01-07T09:53:55.365Z,101794.50
2023-01-07T09:56:30.689Z,101781.94
2023-01-07T09:58:58.959Z,101792.38
2023-01-07T10:01:50.483Z,101793.97
2023-01-07T10:04:40.280Z,101798.22
2023-01-07T10:07:28.763Z,101792.69
2023-01-07T10:10:04.319Z,101791.94
2023-01-07T10:12:49.126Z,101789.38
2023-01-07T10:15:37.125Z,101788.13
2023-01-07T10:18:25.597Z,101783.16
2023-01-07T10:21:08.706Z,101780.97
2023-01-07T10:23:43.991Z,101771.78
2023-01-07T10:26:39.300Z,101774.56
2023-01-07T10:29:27.538Z,101767.97
2023-01-07T10:31:56.682Z,101764.63
2023-01-07T10:34:32.399Z,101764.47
2023-01-07T10:37:03.257Z,101767.38
2023-01-07T10:39:35.550Z,101762.59
2023-01-07T10:42:36.387Z,101758.97
2023-01-07T10:45:21.413Z,101763.34
2023-01-07T10:48:04.468Z,101760.97
2023-01-07T10:50:49.840Z,101755.38
2023-01-07T10:53:54.293Z,101748.09
2023-01-07T10:56:30.069Z,101751.59
2023-01-07T10:58:56.901Z,101745.91
2023-01-07T11:01:35.114Z,101741.06
2023-01-07T11:04:02.604Z,101735.56
2023-01-07T11:06:47.552Z,101740.22
2023-01-07T11:09:19.659Z,101743.31
2023-01-07T11:11:48.401Z,101738.94
2023-01-07T11:14:24.106Z,101737.47
2023-01-07T11:16:55.988Z,101723.56
2023-01-07T11:19:41.715Z,101720.31
2023-01-07T11:22:27.887Z,101718.84
2023-01-07T11:24:56.204Z,101721.03
2023-01-07T11:27:26.009Z,101715.16
2023-01-07T11:30:05.094Z,101720.84
2023-01-07T11:32:36.728Z,101706.75
2023-01-07T11:35:10.469Z,101702.31
2023-01-07T11:37:39.416Z,101693.16
2023-01-07T11:40:19.985Z,101688.03
2023-01-07T11:43:15.552Z,101686.56
2023-01-07T11:46:21.422Z,101676.06
2023-01-07T11:48:46.205Z,101671.84
2023-01-07T11:51:13.017Z,101678.97
2023-01-07T11:53:43.987Z,101685.38
2023-01-07T11:56:12.001Z,101675.81
2023-01-07T11:58:42.954Z,101673.84
2023-01-07T12:01:10.035Z,101670.75
2023-01-07T12:04:04.017Z,101662.16
2023-01-07T12:06:37.561Z,101653.94
2023-01-07T12:09:18.089Z,101660.91
2023-01-07T12:11:45.773Z,101658.50
2023-01-07T12:14:38.181Z,101662.22
2023-01-07T12:17:20.539Z,101657.59
2023-01-07T12:20:05.454Z,101658.31
2023-01-07T12:23:09.401Z,101645.72
2023-01-07T12:25:52.690Z,101646.06
2023-01-07T12:28:41.812Z,101639.84
2023-01-07T12:31:21.431Z,101629.00
2023-01-07T12:34:04.479Z,101626.66
2023-01-07T12:36:48.272Z,101621.00
2023-01-07T12:39:23.035Z,101622.72
2023-01-07T12:41:58.588Z,101616.84
2023-01-07T12:44:25.154Z,101616.25
2023-01-07T12:47:31.974Z,101606.00
2023-01-07T12:50:25.644Z,101604.50
2023-01-07T12:53:02.038Z,101604.84
2023-01-07T12:55:40.882Z,101605.03
2023-01-07T12:58:28.512Z,101598.56
2023-01-07T13:01:15.605Z,101593.63
2023-01-07T13:04:00.956Z,101600.03
2023-01-07T13:06:33.461Z,101595.31
2023-01-07T13:09:41.927Z,101588.44
2023-01-07T13:12:43.369Z,101590.09
2023-01-07T13:15:12.432Z,101587.34
2023-01-07T13:17:40.614Z,101584.44
2023-01-07T13:20:12.616Z,101590.22
2023-01-07T13:22:54.851Z,101576.13
2023-01-07T13:25:40.778Z,101577.81
2023-01-07T13:28:31.936Z,101575.66
2023-01-07T13:31:07.587Z,101580.38
2023-01-07T13:33:49.050Z,101576.00
2023-01-07T13:36:45.118Z,101574.41
2023-01-07T13:40:02.522Z,101573.75
2023-01-07T13:42:54.850Z,101576.44
2023-01-07T13:45:30.897Z,101570.75
2023-01-07T13:48:00.728Z,101575.50
2023-01-07T13:50:45.086Z,101569.28
2023-01-07T13:53:14.421Z,101572.59
2023-01-07T13:55:43.795Z,101574.75
2023-01-07T13:58:45.471Z,101562.34
2023-01-07T14:01:15.234Z,101560.16
2023-01-07T14:03:42.209Z,101563.00
2023-01-07T14:06:20.967Z,101561.50
2023-01-07T14:09:13.549Z,101562.09
2023-01-07T14:12:18.297Z,101561.19
2023-01-07T14:15:03.730Z,101560.84
2023-01-07T14:17:48.390Z,101549.91
2023-01-07T14:20:31.646Z,101562.09
2023-01-07T14:23:20.100Z,101564.47
2023-01-07T14:25:50.872Z,101564.47
2023-01-07T14:28:32.332Z,101562.03
2023-01-07T14:31:01.090Z,101564.53
2023-01-07T14:33:52.474Z,101567.09
2023-01-07T14:36:19.016Z,101571.31
2023-01-07T14:38:47.867Z,101577.34
2023-01-07T14:41:16.689Z,101576.06
2023-01-07T14:43:46.969Z,101573.88
2023-01-07T14:46:22.650Z,101564.22
2023-01-07T14:48:58.178Z,101571.72
2023-01-07T14:52:19.198Z,101575.88
2023-01-07T14:55:25.500Z,101576.56
2023-01-07T14:58:02.373Z,101576.56
2023-01-07T15:00:53.173Z,101578.63
2023-01-07T15:03:30.859Z,101582.72
2023-01-07T15:06:18.011Z,101579.25
2023-01-07T15:09:11.639Z,101579.41
2023-01-07T15:12:00.409Z,101575.22
2023-01-07T15:14:55.451Z,101584.72
2023-01-07T15:17:21.971Z,101579.97
2023-01-07T15:19:48.876Z,101582.41
2023-01-07T15:22:53.864Z,101584.97
2023-01-07T15:25:43.791Z,101582.94
2023-01-07T15:28:10.235Z,101582.59
2023-01-07T15:30:46.224Z,101579.00
2023-01-07T15:33:58.548Z,101581.91
2023-01-07T15:36:25.757Z,101576.06
2023-01-07T15:38:55.700Z,101570.22
2023-01-07T15:41:25.105Z,101572.97
2023-01-07T15:43:53.823Z,101577.19
2023-01-07T15:46:23.423Z,101574.06
2023-01-07T15:49:08.561Z,101571.00
2023-01-07T15:51:44.499Z,101567.00
2023-01-07T15:54:30.341Z,101575.53
2023-01-07T15:57:22.945Z,101573.88
2023-01-07T15:59:52.496Z,101571.13
2023-01-07T16:02:27.610Z,101570.09
2023-01-07T16:04:57.563Z,101572.78
2023-01-07T16:07:34.281Z,101564.72
2023-01-07T16:10:00.944Z,101572.91
2023-01-07T16:12:31.998Z,101571.31
2023-01-07T16:14:58.558Z,101568.81
2023-01-07T16:17:25.855Z,101576.03
2023-01-07T16:20:09.632Z,101570.03
2023-01-07T16:22:49.268Z,101568.03
2023-01-07T16:25:31.185Z,101566.41
2023-01-07T16:27:57.784Z,101567.31
2023-01-07T16:30:24.321Z,101564.56
2023-01-07T16:32:51.024Z,101557.97
2023-01-07T16:35:22.627Z,101558.53
2023-01-07T16:37:49.777Z,101557.44
2023-01-07T16:40:24.517Z,101555.44
2023-01-07T16:42:51.115Z,101561.28
2023-01-07T16:45:29.136Z,101554.16
2023-01-07T16:48:17.892Z,101551.81
2023-01-07T16:50:45.939Z,101547.25
2023-01-07T16:53:33.457Z,101547.97
2023-01-07T16:56:10.453Z,101544.28
2023-01-07T16:58:41.358Z,101543.03
2023-01-07T17:01:09.924Z,101547.09
2023-01-07T17:03:55.696Z,101543.13
2023-01-07T17:06:42.483Z,101542.75
2023-01-07T17:09:24.558Z,101540.31
2023-01-07T17:11:53.038Z,101549.44
2023-01-07T17:14:49.909Z,101546.34
2023-01-07T17:17:29.943Z,101549.94
2023-01-07T17:20:12.842Z,101546.88
2023-01-07T17:22:40.331Z,101556.22
2023-01-07T17:25:20.528Z,101546.34
2023-01-07T17:27:58.304Z,101545.91
2023-01-07T17:30:34.993Z,101551.22
2023-01-07T17:33:01.829Z,101543.59
2023-01-07T17:35:28.292Z,101546.34
2023-01-07T17:37:56.629Z,101536.44
2023-01-07T17:40:23.114Z,101543.59
2023-01-07T17:43:09.372Z,101532.81
2023-01-07T17:45:36.097Z,101540.84
2023-01-07T17:48:02.666Z,101536.81
2023-01-07T17:50:35.499Z,101538.09
2023-01-07T17:53:02.107Z,101536.63
2023-01-07T17:55:30.723Z,101538.25
2023-01-07T17:57:57.344Z,101547.00
2023-01-07T18:00:26.413Z,101549.56
2023-01-07T18:02:52.996Z,101548.16
2023-01-07T18:05:22.347Z,101547.91
2023-01-07T18:07:50.691Z,101544.06
2023-01-07T18:10:20.146Z,101543.09
2023-01-07T18:12:46.932Z,101543.88
2023-01-07T18:15:17.882Z,101551.81
2023-01-07T18:17:45.364Z,101557.63
2023-01-07T18:20:12.029Z,101551.56
2023-01-07T18:22:38.449Z,101552.13
2023-01-07T18:25:06.035Z,101559.66
2023-01-07T18:27:32.660Z,101558.34
2023-01-07T18:29:59.091Z,101560.91
2023-01-07T18:32:25.521Z,101559.09
2023-01-07T18:34:52.008Z,101557.25
2023-01-07T18:37:18.751Z,101560.56
2023-01-07T18:39:45.159Z,101566.41
2023-01-07T18:42:11.823Z,101562.19
2023-01-07T18:44:38.209Z,101567.47
2023-01-07T18:47:04.725Z,101558.16
2023-01-07T18:49:31.165Z,101557.97
2023-01-07T18:51:57.553Z,101549.94
2023-01-07T18:54:24.067Z,101548.47
2023-01-07T18:56:50.642Z,101547.56
2023-01-07T18:59:17.213Z,101549.94
2023-01-07T19:01:43.827Z,101552.19
2023-01-07T19:04:10.405Z,101550.53
2023-01-07T19:06:36.857Z,101548.16
2023-01-07T19:09:03.383Z,101543.03
2023-01-07T19:11:31.361Z,101540.66
2023-01-07T19:13:57.785Z,101548.84
2023-01-07T19:16:24.264Z,101545.72
2023-01-07T19:18:52.347Z,101546.56
2023-01-07T19:21:19.242Z,101551.69
2023-01-07T19:23:47.443Z,101546.00
2023-01-07T19:26:13.885Z,101540.31
2023-01-07T19:28:40.323Z,101545.81
2023-01-07T19:31:08.142Z,101546.72
2023-01-07T19:33:35.151Z,101545.81
2023-01-07T19:36:09.214Z,101552.16
2023-01-07T19:38:40.390Z,101550.53
2023-01-07T19:41:12.621Z,101545.22
2023-01-07T19:43:39.377Z,101553.50
2023-01-07T19:46:07.283Z,101552.72
2023-01-07T19:48:33.985Z,101554.97
2023-01-07T19:51:02.420Z,101553.13
2023-01-07T19:53:29.821Z,101557.72
2023-01-07T19:56:08.175Z,101558.94
2023-01-07T19:58:35.220Z,101560.59
2023-01-07T20:01:07.510Z,101558.03
2023-01-07T20:03:35.493Z,101556.38
2023-01-07T20:06:08.184Z,101555.25
2023-01-07T20:08:35.148Z,101551.19
2023-01-07T20:11:02.115Z,101547.16
2023-01-07T20:13:33.887Z,101548.13
2023-01-07T20:16:12.691Z,101539.91
2023-01-07T20:18:41.359Z,101543.63
2023-01-07T20:21:08.968Z,101546.53
2023-01-07T20:23:36.635Z,101537.03
2023-01-07T20:26:06.621Z,101534.78
2023-01-07T20:28:34.041Z,101540.28
2023-01-07T20:31:04.431Z,101540.28
2023-01-07T20:33:30.959Z,101545.22
2023-01-07T20:36:06.270Z,101530.94
2023-01-07T20:38:32.793Z,101530.69
2023-01-07T20:40:59.517Z,101533.25
2023-01-07T20:43:26.213Z,101536.97
2023-01-07T20:45:57.599Z,101538.38
2023-01-07T20:48:23.991Z,101538.38
2023-01-07T20:50:50.441Z,101536.59
2023-01-07T20:53:16.987Z,101534.47
2023-01-07T20:55:43.455Z,101528.81
2023-01-07T20:58:09.851Z,101525.50
2023-01-07T21:00:37.581Z,101525.75
2023-01-07T21:03:06.016Z,101520.63
2023-01-07T21:05:32.570Z,101520.63
2023-01-07T21:07:59.323Z,101524.28
2023-01-07T21:10:26.314Z,101526.25
2023-01-07T21:12:53.727Z,101517.66
2023-01-07T21:15:20.137Z,101507.75
2023-01-07T21:17:46.561Z,101505.00
2023-01-07T21:20:15.004Z,101504.84
2023-01-07T21:22:42.201Z,101500.13
2023-01-07T21:25:11.216Z,101486.56
2023-01-07T21:27:38.151Z,101477.47
2023-01-07T21:30:09.177Z,101479.84
2023-01-07T21:32:35.795Z,101473.63
2023-01-07T21:35:02.203Z,101482.97
2023-01-07T21:37:29.410Z,101490.25
2023-01-07T21:39:55.932Z,101486.00
2023-01-07T21:42:22.372Z,101467.22
2023-01-07T21:44:48.771Z,101462.88
2023-01-07T21:47:15.263Z,101471.50
2023-01-07T21:49:43.262Z,101475.66
2023-01-07T21:52:09.669Z,101486.41
2023-01-07T21:54:36.130Z,101485.09
2023-01-07T21:57:02.548Z,101479.63
2023-01-07T21:59:29.090Z,101472.84
2023-01-07T22:01:55.582Z,101482.72
2023-01-07T22:04:22.194Z,101469.72
2023-01-07T22:06:48.712Z,101481.44
2023-01-07T22:09:16.030Z,101477.47
2023-01-07T22:11:43.054Z,101477.13
2023-01-07T22:14:15.685Z,101475.06
2023-01-07T22:16:42.806Z,101495.00
2023-01-07T22:19:11.051Z,101497.94
2023-01-07T22:21:38.512Z,101502.75
2023-01-07T22:24:05.527Z,101501.28
2023-01-07T22:26:31.958Z,101503.81
2023-01-07T22:29:03.072Z,101489.94
2023-01-07T22:31:31.733Z,101482.97
2023-01-07T22:33:59.046Z,101478.59
2023-01-07T22:36:54.843Z,101484.41
2023-01-07T22:39:29.516Z,101475.75
2023-01-07T22:41:59.919Z,101468.22
2023-01-07T22:44:36.634Z,101478.16
2023-01-07T22:47:07.366Z,101454.59
2023-01-07T22:49:34.982Z,101462.66
2023-01-07T22:52:01.692Z,101468.69
2023-01-07T22:54:28.665Z,101480.91
2023-01-07T22:56:55.157Z,101472.66
2023-01-07T22:59:21.596Z,101468.63
2023-01-07T23:01:48.008Z,101474.50
2023-01-07T23:04:14.498Z,101451.50
2023-01-07T23:06:40.961Z,101439.09
2023-01-07T23:09:07.646Z,101421.94
2023-01-07T23:11:50.472Z,101420.53
2023-01-07T23:14:22.097Z,101435.31
2023-01-07T23:16:50.103Z,101431.84
2023-01-07T23:19:17.592Z,101435.31
2023-01-07T23:21:45.553Z,101430.00
2023-01-07T23:24:13.088Z,101418.47
2023-01-07T23:26:40.018Z,101420.31
2023-01-07T23:29:07.210Z,101421.72
2023-01-07T23:31:35.167Z,101416.44
2023-01-07T23:34:02.038Z,101416.75
2023-01-07T23:36:28.555Z,101403.81
2023-01-07T23:38:55.149Z,101391.63
2023-01-07T23:41:21.855Z,101392.19
2023-01-07T23:43:48.792Z,101405.50
2023-01-07T23:46:15.612Z,101412.97
2023-01-07T23:48:42.111Z,101431.97
2023-01-07T23:51:12.047Z,101426.28
2023-01-07T23:53:39.076Z,101422.25
2023-01-07T23:56:06.382Z,101418.59
2023-01-07T23:58:33.399Z,101421.88
